createdAt,value
2019-02-07T00:04:50.007Z,81.60
2019-02-07T00:07:18.210Z,81.75
2019-02-07T00:09:46.410Z,81.67
2019-02-07T00:12:14.619Z,81.72
2019-02-07T00:14:42.799Z,81.77
2019-02-07T00:17:11.022Z,81.89
2019-02-07T00:19:39.213Z,81.90
2019-02-07T00:22:09.137Z,81.95
2019-02-07T00:24:42.861Z,82.07
2019-02-07T00:27:07.262Z,82.04
2019-02-07T00:29:35.473Z,82.17
2019-02-07T00:32:03.700Z,82.08
2019-02-07T00:34:31.945Z,82.14
2019-02-07T00:37:01.867Z,82.13
2019-02-07T00:39:30.065Z,82.11
2019-02-07T00:41:58.271Z,82.00
2019-02-07T00:47:13.716Z,81.84
2019-02-07T00:49:43.681Z,81.82
2019-02-07T00:52:31.193Z,81.75
2019-02-07T00:54:59.410Z,81.90
2019-02-07T00:57:27.612Z,81.98
2019-02-07T00:59:57.545Z,81.92
2019-02-07T01:02:25.747Z,81.88
2019-02-07T01:04:53.934Z,81.52
2019-02-07T01:07:22.135Z,81.39
2019-02-07T01:09:50.347Z,81.54
2019-02-07T01:12:18.546Z,81.49
2019-02-07T01:14:46.762Z,81.34
2019-02-07T01:17:14.967Z,81.08
2019-02-07T01:19:43.180Z,81.15
2019-02-07T01:22:30.520Z,81.16
2019-02-07T01:24:58.732Z,80.98
2019-02-07T01:27:26.936Z,80.98
2019-02-07T01:30:14.514Z,81.10
2019-02-07T01:32:42.717Z,81.12
2019-02-07T01:35:10.907Z,81.14
2019-02-07T01:37:39.135Z,81.00
2019-02-07T01:45:56.636Z,80.59
2019-02-07T01:48:24.845Z,80.63
2019-02-07T01:50:53.052Z,80.84
2019-02-07T01:53:21.254Z,80.82
2019-02-07T01:55:49.467Z,80.72
2019-02-07T01:58:17.692Z,80.79
2019-02-07T02:00:45.879Z,80.72
2019-02-07T02:03:14.188Z,80.90
2019-02-07T02:05:42.401Z,81.00
2019-02-07T02:08:10.625Z,81.00
2019-02-07T02:10:38.836Z,80.93
2019-02-07T02:13:07.061Z,81.11
2019-02-07T02:15:35.276Z,81.09
2019-02-07T02:18:05.209Z,81.29
2019-02-07T02:20:33.427Z,81.27
2019-02-07T02:23:01.636Z,81.32
2019-02-07T02:25:49.264Z,81.17
2019-02-07T02:28:17.467Z,81.44
2019-02-07T02:30:47.378Z,81.46
2019-02-07T02:33:15.579Z,81.61
2019-02-07T02:36:02.881Z,81.70
2019-02-07T02:38:31.080Z,81.70
2019-02-07T02:40:59.292Z,81.72
2019-02-07T02:43:27.496Z,81.69
2019-02-07T02:45:55.690Z,81.73
2019-02-07T02:48:23.916Z,81.62
2019-02-07T02:51:11.467Z,81.79
2019-02-07T02:53:39.664Z,81.83
2019-02-07T02:56:07.876Z,81.97
2019-02-07T02:59:16.223Z,81.94
2019-02-07T03:04:54.149Z,81.91
2019-02-07T03:07:41.579Z,82.03
2019-02-07T03:10:49.854Z,81.76
2019-02-07T03:13:37.182Z,81.65
2019-02-07T03:19:13.368Z,81.81
2019-02-07T03:22:00.675Z,81.87
2019-02-07T03:24:47.996Z,81.79
2019-02-07T03:27:35.297Z,81.86
2019-02-07T03:30:15.042Z,82.06
2019-02-07T03:35:55.816Z,82.17
2019-02-07T03:38:43.117Z,81.85
2019-02-07T03:44:09.663Z,81.97
2019-02-07T03:46:56.967Z,82.06
2019-02-07T03:52:19.604Z,82.09
2019-02-07T03:57:42.341Z,82.05
2019-02-07T04:03:30.421Z,82.09
2019-02-07T04:06:17.741Z,81.70
2019-02-07T04:09:05.073Z,81.35
2019-02-07T04:11:52.413Z,81.37
2019-02-07T04:14:39.753Z,80.91
2019-02-07T04:22:37.709Z,80.76
2019-02-07T04:25:25.055Z,80.69
2019-02-07T04:28:12.378Z,80.68
2019-02-07T04:30:59.696Z,80.60
2019-02-07T04:33:46.996Z,80.58
2019-02-07T04:36:34.315Z,80.74
2019-02-07T04:42:10.591Z,80.92
2019-02-07T04:44:57.892Z,80.90
2019-02-07T04:47:45.231Z,80.86
2019-02-07T04:50:32.559Z,80.81
2019-02-07T04:53:20.150Z,80.62
2019-02-07T04:56:07.452Z,80.71
2019-02-07T04:58:54.768Z,80.42
2019-02-07T05:04:30.951Z,80.54
2019-02-07T05:09:57.457Z,80.49
2019-02-07T05:12:44.777Z,80.39
2019-02-07T05:15:32.075Z,80.26
2019-02-07T05:18:19.387Z,80.46
2019-02-07T05:21:06.692Z,80.39
2019-02-07T05:29:08.895Z,80.51
2019-02-07T05:31:56.207Z,80.36
2019-02-07T05:37:18.866Z,80.36
2019-02-07T05:40:06.205Z,80.16
2019-02-07T05:45:42.401Z,80.46
2019-02-07T05:48:29.720Z,80.29
2019-02-07T05:51:17.030Z,80.28
2019-02-07T05:54:04.363Z,80.33
2019-02-07T05:56:51.764Z,80.18
2019-02-07T06:04:53.443Z,80.21
2019-02-07T06:07:40.745Z,80.06
2019-02-07T06:10:49.060Z,79.82
2019-02-07T06:16:25.242Z,79.82
2019-02-07T06:21:51.966Z,79.82
2019-02-07T06:24:39.288Z,79.66
2019-02-07T06:27:26.593Z,79.59
2019-02-07T06:30:33.297Z,79.62
2019-02-07T06:36:09.806Z,79.92
2019-02-07T06:38:57.107Z,80.05
2019-02-07T06:41:44.430Z,79.71
2019-02-07T06:44:51.120Z,79.78
2019-02-07T06:47:38.445Z,79.88
2019-02-07T06:53:26.488Z,79.70
2019-02-07T06:56:13.889Z,79.39
2019-02-07T06:59:01.202Z,79.65
2019-02-07T07:09:45.814Z,79.83
2019-02-07T07:12:33.149Z,79.92
2019-02-07T07:18:09.359Z,79.90
2019-02-07T07:23:45.552Z,79.94
2019-02-07T07:31:43.019Z,79.97
2019-02-07T07:34:30.323Z,79.82
2019-02-07T07:37:17.659Z,79.81
2019-02-07T07:40:04.989Z,79.91
2019-02-07T07:42:52.299Z,79.70
2019-02-07T07:45:39.602Z,79.86
2019-02-07T07:48:26.919Z,79.92
2019-02-07T07:51:14.590Z,79.54
2019-02-07T07:54:01.927Z,79.23
2019-02-07T07:56:49.251Z,79.38
2019-02-07T08:02:25.443Z,79.21
2019-02-07T08:08:01.636Z,79.14
2019-02-07T08:16:13.356Z,78.56
2019-02-07T08:19:00.689Z,78.63
2019-02-07T08:24:36.884Z,78.61
2019-02-07T08:27:24.289Z,78.38
2019-02-07T08:30:11.598Z,78.29
2019-02-07T08:35:47.791Z,78.25
2019-02-07T08:38:35.111Z,77.77
2019-02-07T08:44:14.052Z,77.29
2019-02-07T08:47:00.347Z,77.43
2019-02-07T08:49:47.949Z,77.01
2019-02-07T08:52:35.258Z,77.25
2019-02-07T08:55:22.568Z,77.22
2019-02-07T08:58:09.894Z,77.57
2019-02-07T09:00:57.229Z,77.82
2019-02-07T09:06:33.500Z,77.94
2019-02-07T09:09:20.996Z,78.16
2019-02-07T09:14:57.186Z,78.92
2019-02-07T09:20:33.397Z,79.65
2019-02-07T09:23:20.695Z,79.68
2019-02-07T09:26:08.013Z,79.88
2019-02-07T09:31:44.193Z,80.48
2019-02-07T09:34:31.768Z,80.63
2019-02-07T09:42:33.441Z,80.82
2019-02-07T09:45:20.766Z,80.85
2019-02-07T09:48:08.090Z,80.99
2019-02-07T09:50:55.401Z,80.76
2019-02-07T09:53:42.717Z,81.00
2019-02-07T09:56:30.031Z,80.89
2019-02-07T09:59:17.347Z,80.85
2019-02-07T10:02:05.029Z,80.80
2019-02-07T10:04:52.337Z,80.89
2019-02-07T10:07:39.653Z,80.83
2019-02-07T10:13:27.751Z,81.14
2019-02-07T10:16:15.068Z,81.09
2019-02-07T10:19:02.371Z,81.31
2019-02-07T10:24:28.926Z,81.03
2019-02-07T10:27:16.246Z,81.05
2019-02-07T10:30:03.558Z,80.81
2019-02-07T10:32:50.897Z,80.66
2019-02-07T10:35:38.227Z,80.44
2019-02-07T10:38:25.552Z,80.60
2019-02-07T10:41:12.856Z,80.76
2019-02-07T10:44:00.165Z,80.39
2019-02-07T10:46:47.481Z,80.44
2019-02-07T10:49:34.819Z,80.24
2019-02-07T10:52:22.135Z,80.09
2019-02-07T10:55:09.438Z,79.63
2019-02-07T11:00:56.924Z,79.48
2019-02-07T11:03:44.324Z,79.42
2019-02-07T11:06:31.625Z,79.26
2019-02-07T11:09:18.969Z,79.51
2019-02-07T11:12:06.505Z,79.04
2019-02-07T11:17:29.117Z,78.88
2019-02-07T11:20:16.430Z,78.86
2019-02-07T11:25:42.881Z,78.52
2019-02-07T11:31:05.376Z,78.54
2019-02-07T11:33:52.980Z,78.40
2019-02-07T11:36:40.280Z,78.30
2019-02-07T11:42:28.891Z,78.55
2019-02-07T11:45:16.201Z,78.46
2019-02-07T11:48:03.501Z,78.15
2019-02-07T11:53:30.089Z,78.47
2019-02-07T11:56:17.405Z,78.52
2019-02-07T11:59:05.068Z,78.42
2019-02-07T12:02:08.804Z,78.16
2019-02-07T12:04:48.885Z,78.31
2019-02-07T12:07:36.190Z,78.41
2019-02-07T12:10:44.497Z,78.22
2019-02-07T12:13:31.799Z,78.24
2019-02-07T12:16:19.192Z,77.59
2019-02-07T12:19:17.517Z,76.61
2019-02-07T12:21:55.596Z,76.18
2019-02-07T12:24:42.896Z,75.84
2019-02-07T12:27:30.229Z,73.94
2019-02-07T12:30:17.571Z,73.91
2019-02-07T12:33:04.878Z,73.06
2019-02-07T12:35:52.191Z,73.75
2019-02-07T12:38:39.525Z,73.40
2019-02-07T12:41:26.858Z,72.70
2019-02-07T12:44:14.161Z,72.28
2019-02-07T12:47:01.475Z,72.24
2019-02-07T12:49:48.788Z,71.95
2019-02-07T12:52:36.142Z,71.46
2019-02-07T13:01:25.360Z,68.20
2019-02-07T13:04:12.671Z,67.90
2019-02-07T13:06:59.987Z,67.82
2019-02-07T13:09:47.288Z,67.25
2019-02-07T13:18:07.970Z,64.63
2019-02-07T13:26:35.379Z,65.72
2019-02-07T13:29:22.675Z,66.36
2019-02-07T13:32:10.043Z,65.83
2019-02-07T13:34:57.320Z,66.26
2019-02-07T13:37:44.813Z,66.24
2019-02-07T13:40:32.216Z,66.76
2019-02-07T13:43:19.537Z,66.23
2019-02-07T13:46:06.837Z,65.82
2019-02-07T13:51:33.511Z,62.70
2019-02-07T13:54:20.827Z,59.17
2019-02-07T13:59:46.942Z,58.37
2019-02-07T14:02:34.237Z,59.93
2019-02-07T14:05:21.540Z,58.76
2019-02-07T14:08:08.852Z,58.45
2019-02-07T14:10:56.426Z,59.02
2019-02-07T14:16:18.866Z,58.36
2019-02-07T14:32:06.128Z,58.27
2019-02-07T14:34:53.445Z,58.55
2019-02-07T14:37:40.738Z,58.89
2019-02-07T14:43:28.530Z,62.01
2019-02-07T14:46:15.853Z,59.10
2019-02-07T14:48:45.256Z,57.92
2019-02-07T14:51:14.023Z,58.67
2019-02-07T14:53:42.233Z,57.42
2019-02-07T14:56:10.423Z,57.32
2019-02-07T14:58:38.626Z,56.72
2019-02-07T15:01:08.557Z,56.62
2019-02-07T15:03:36.774Z,57.24
2019-02-07T15:06:04.961Z,57.47
2019-02-07T15:08:33.173Z,57.63
2019-02-07T15:11:01.380Z,57.67
2019-02-07T15:13:29.570Z,57.75
2019-02-07T15:15:57.787Z,57.30
2019-02-07T15:18:46.153Z,57.07
2019-02-07T15:24:28.812Z,56.25
2019-02-07T15:26:57.004Z,56.66
2019-02-07T15:30:05.320Z,56.48
2019-02-07T15:32:33.531Z,56.35
2019-02-07T15:35:01.733Z,56.75
2019-02-07T15:37:29.914Z,56.60
2019-02-07T15:39:58.109Z,56.42
2019-02-07T15:42:26.297Z,56.52
2019-02-07T15:44:54.791Z,57.16
2019-02-07T15:47:22.983Z,56.49
2019-02-07T15:49:51.191Z,56.59
2019-02-07T15:52:19.379Z,56.60
2019-02-07T15:54:47.585Z,57.96
2019-02-07T15:57:15.797Z,58.09
2019-02-07T16:02:32.930Z,59.41
2019-02-07T16:05:01.193Z,59.61
2019-02-07T16:07:29.385Z,58.68
2019-02-07T16:09:57.578Z,57.27
2019-02-07T16:12:27.499Z,57.84
2019-02-07T16:14:55.710Z,56.60
2019-02-07T16:17:23.909Z,56.88
2019-02-07T16:19:52.119Z,56.86
2019-02-07T16:22:20.318Z,57.24
2019-02-07T16:24:48.528Z,57.21
2019-02-07T16:27:18.451Z,57.37
2019-02-07T16:29:46.633Z,57.37
2019-02-07T16:32:14.831Z,57.44
2019-02-07T16:34:43.015Z,57.69
2019-02-07T16:37:11.287Z,57.84
2019-02-07T16:39:39.470Z,58.05
2019-02-07T16:42:07.676Z,58.08
2019-02-07T16:44:37.582Z,58.20
2019-02-07T16:47:05.805Z,58.24
2019-02-07T16:49:34.012Z,58.47
2019-02-07T16:52:02.248Z,58.47
2019-02-07T16:54:30.461Z,58.60
2019-02-07T16:56:58.655Z,58.85
2019-02-07T16:59:28.574Z,58.97
2019-02-07T17:01:56.777Z,58.99
2019-02-07T17:04:24.962Z,59.19
2019-02-07T17:06:53.174Z,59.36
2019-02-07T17:12:10.260Z,59.49
2019-02-07T17:14:38.439Z,59.38
2019-02-07T17:17:06.640Z,59.45
2019-02-07T17:19:34.819Z,59.53
2019-02-07T17:22:03.022Z,59.64
2019-02-07T17:24:31.194Z,59.76
2019-02-07T17:26:59.388Z,59.85
2019-02-07T17:29:27.577Z,59.98
2019-02-07T17:31:55.769Z,60.02
2019-02-07T17:34:23.948Z,60.11
2019-02-07T17:36:52.164Z,60.12
2019-02-07T17:39:20.355Z,60.26
2019-02-07T17:41:48.548Z,60.16
2019-02-07T17:44:18.486Z,60.28
2019-02-07T17:46:46.671Z,60.27
2019-02-07T17:49:14.873Z,60.37
2019-02-07T17:51:43.081Z,60.35
2019-02-07T17:54:18.670Z,60.59
2019-02-07T17:56:41.160Z,60.49
2019-02-07T17:59:09.375Z,60.46
2019-02-07T18:01:39.286Z,60.50
2019-02-07T18:04:07.482Z,60.47
2019-02-07T18:06:35.668Z,60.19
2019-02-07T18:09:43.970Z,60.27
2019-02-07T18:12:12.183Z,60.20
2019-02-07T18:14:40.362Z,59.83
2019-02-07T18:17:08.544Z,60.02
2019-02-07T18:19:36.733Z,59.93
2019-02-07T18:22:04.918Z,60.10
2019-02-07T18:24:33.140Z,60.25
2019-02-07T18:27:01.338Z,60.05
2019-02-07T18:29:29.533Z,59.97
2019-02-07T18:31:57.716Z,60.04
2019-02-07T18:34:26.026Z,59.94
2019-02-07T18:36:54.211Z,60.04
2019-02-07T18:39:22.430Z,60.19
2019-02-07T18:41:52.340Z,60.09
2019-02-07T18:44:20.532Z,60.15
2019-02-07T18:46:48.727Z,60.19
2019-02-07T18:49:16.947Z,60.85
2019-02-07T18:51:46.013Z,62.03
2019-02-07T18:54:15.095Z,62.92
2019-02-07T18:56:43.296Z,64.10
2019-02-07T18:59:13.209Z,64.53
2019-02-07T19:01:41.389Z,65.11
2019-02-07T19:04:09.583Z,64.59
2019-02-07T19:06:57.193Z,64.66
2019-02-07T19:09:25.385Z,65.13
2019-02-07T19:11:53.564Z,64.97
2019-02-07T19:14:21.785Z,65.28
2019-02-07T19:16:49.970Z,65.34
2019-02-07T19:19:18.167Z,65.08
2019-02-07T19:21:56.514Z,65.18
2019-02-07T19:24:16.259Z,65.27
2019-02-07T19:26:44.445Z,64.88
2019-02-07T19:29:12.691Z,64.74
2019-02-07T19:32:00.387Z,64.75
2019-02-07T19:34:28.583Z,64.35
2019-02-07T19:36:56.761Z,64.49
2019-02-07T19:39:24.999Z,64.39
2019-02-07T19:41:53.181Z,64.30
2019-02-07T19:44:21.390Z,64.25
2019-02-07T19:46:49.609Z,64.16
2019-02-07T19:49:17.779Z,64.11
2019-02-07T19:51:45.974Z,63.90
2019-02-07T19:54:14.161Z,63.88
2019-02-07T19:56:44.094Z,63.70
2019-02-07T19:59:12.273Z,63.58
2019-02-07T20:01:40.473Z,63.69
2019-02-07T20:04:08.670Z,64.11
2019-02-07T20:06:36.886Z,63.79
2019-02-07T20:12:18.581Z,63.64
2019-02-07T20:14:46.828Z,63.53
2019-02-07T20:17:15.043Z,63.68
2019-02-07T20:19:43.220Z,63.67
2019-02-07T20:22:20.319Z,63.82
2019-02-07T20:24:46.045Z,64.00
2019-02-07T20:27:12.965Z,64.05
2019-02-07T20:29:41.148Z,64.35
2019-02-07T20:32:09.350Z,64.60
2019-02-07T20:34:37.535Z,64.93
2019-02-07T20:37:05.732Z,65.26
2019-02-07T20:39:35.662Z,65.48
2019-02-07T20:42:03.883Z,65.77
2019-02-07T20:44:32.080Z,65.81
2019-02-07T20:47:00.267Z,65.83
2019-02-07T20:49:28.436Z,66.17
2019-02-07T20:51:56.629Z,66.43
2019-02-07T20:54:24.809Z,66.36
2019-02-07T20:56:54.750Z,66.54
2019-02-07T20:59:22.933Z,66.70
2019-02-07T21:02:31.243Z,66.73
2019-02-07T21:05:01.143Z,66.73
2019-02-07T21:07:29.357Z,66.87
2019-02-07T21:09:57.543Z,66.96
2019-02-07T21:12:25.738Z,67.25
2019-02-07T21:14:53.940Z,67.16
2019-02-07T21:17:22.142Z,67.11
2019-02-07T21:19:50.320Z,67.23
2019-02-07T21:22:20.232Z,67.38
2019-02-07T21:24:48.412Z,67.45
2019-02-07T21:27:16.608Z,67.43
2019-02-07T21:30:15.783Z,67.48
2019-02-07T21:32:44.355Z,67.50
2019-02-07T21:35:52.650Z,67.64
2019-02-07T21:38:20.841Z,67.63
2019-02-07T21:40:49.034Z,67.71
2019-02-07T21:43:17.233Z,67.94
2019-02-07T21:45:45.411Z,67.93
2019-02-07T21:48:13.616Z,68.02
2019-02-07T21:50:41.801Z,68.00
2019-02-07T21:53:10.003Z,68.34
2019-02-07T21:58:51.829Z,68.68
2019-02-07T22:01:20.014Z,69.58
2019-02-07T22:03:48.212Z,70.01
2019-02-07T22:06:18.110Z,70.12
2019-02-07T22:08:46.302Z,70.14
2019-02-07T22:11:14.480Z,69.91
2019-02-07T22:13:42.679Z,69.74
2019-02-07T22:16:10.881Z,69.62
2019-02-07T22:18:39.099Z,69.62
2019-02-07T22:21:07.279Z,69.82
2019-02-07T22:23:37.218Z,69.69
2019-02-07T22:26:05.435Z,69.80
2019-02-07T22:28:33.637Z,69.84
2019-02-07T22:31:01.817Z,69.96
2019-02-07T22:33:30.011Z,70.06
2019-02-07T22:35:58.194Z,70.11
2019-02-07T22:38:26.364Z,70.20
2019-02-07T22:40:54.586Z,70.20
2019-02-07T22:43:22.740Z,70.28
2019-02-07T22:45:50.928Z,70.32
2019-02-07T22:48:19.122Z,70.19
2019-02-07T22:50:47.322Z,70.24
2019-02-07T22:53:15.501Z,70.32
2019-02-07T22:56:03.141Z,70.44
2019-02-07T22:58:31.335Z,70.31
2019-02-07T23:01:19.292Z,70.12
2019-02-07T23:03:49.191Z,70.25
2019-02-07T23:06:17.412Z,70.27
2019-02-07T23:08:45.604Z,70.25
2019-02-07T23:11:13.829Z,70.32
2019-02-07T23:13:42.011Z,70.37
2019-02-07T23:16:10.208Z,70.49
2019-02-07T23:18:38.410Z,70.62
2019-02-07T23:21:08.346Z,70.64
2019-02-07T23:23:36.551Z,70.64
2019-02-07T23:26:04.819Z,70.64
2019-02-07T23:28:33.002Z,70.68
2019-02-07T23:31:01.201Z,70.72
2019-02-07T23:33:29.376Z,70.69
2019-02-07T23:35:57.598Z,70.55
2019-02-07T23:38:25.802Z,70.54
2019-02-07T23:40:53.982Z,70.56
2019-02-07T23:43:22.201Z,70.51
2019-02-07T23:45:50.403Z,70.57
2019-02-07T23:48:18.611Z,70.60
2019-02-07T23:50:46.779Z,70.56
2019-02-07T23:53:15.485Z,70.54
2019-02-07T23:55:44.899Z,70.58
2019-02-07T23:58:13.089Z,70.72
